Terminal Aerodrome Forecast
Issued by NWS

Home | Current Version | Previous Version | Text Only | Print | Product List | Glossary Off
Versions: 1 2 3 4 5 6 7 8 9 10 11 12 13 14 15 16 17 18 19

000
FTUS41 KCLE 171900 AAA
TAFFDY
TAF AMD
KFDY 171920Z 1719/1818 06005KT P6SM VCSH SCT030 BKN040
     FM172300 06005KT P6SM SCT030 BKN040
     FM180600 07004KT 4SM BR BKN030 OVC050
      TEMPO 1810/1813 2SM BR OVC007=

USA.gov is the U.S. government's official web portal to all federal, state and local government web resources and services.